Time;durP1;ratioP1;P1;durP2;ratioP2;P2;SDS_P1;SDS_P2;PMS_P1;PMS_P2;Temp;Humidity;BMP_temperature;BMP_pressure;BME280_temperature;BME280_humidity;BME280_pressure;Samples;Min_cycle;Max_cycle;Signal;HPM_P1;HPM_P2
2022/01/25 00:28:52;;;;;;;41.73;23.83;;;;;;;3.56;78.42;101873.59;2163913;82;29384;-61
2022/01/25 00:31:48;;;;;;;40.73;24.72;;;;;;;3.56;78.45;101868.29;2152864;82;27588;-61
2022/01/25 00:34:51;;;;;;;42.88;24.05;;;;;;;3.57;78.46;101859.46;2142418;83;29570;-62
2022/01/25 00:37:53;;;;;;;43.98;23.87;;;;;;;3.56;78.44;101859.47;2145705;82;32197;-60
2022/01/25 00:40:56;;;;;;;45.98;24.15;;;;;;;3.53;78.46;101859.03;2151135;82;33625;-59
2022/01/25 00:44:00;;;;;;;42.95;24.23;;;;;;;3.52;78.50;101851.95;2153535;82;29995;-60
2022/01/25 00:47:02;;;;;;;48.55;24.77;;;;;;;3.51;78.58;101850.18;2153570;82;27763;-60
2022/01/25 00:50:13;;;;;;;42.93;24.23;;;;;;;3.52;78.58;101852.38;2150930;82;29510;-60
2022/01/25 00:56:34;;;;;;;47.60;26.48;;;;;;;3.50;78.63;101851.06;2093289;84;34247;-60
2022/01/25 00:59:36;;;;;;;42.98;23.77;;;;;;;3.49;78.74;101852.80;2057396;86;29339;-61
2022/01/25 01:02:38;;;;;;;44.20;23.12;;;;;;;3.50;78.71;101853.70;2113478;81;27726;-60
2022/01/25 01:05:41;;;;;;;42.00;24.20;;;;;;;3.50;78.79;101848.41;2240051;79;29443;-60
2022/01/25 01:08:43;;;;;;;41.28;24.23;;;;;;;3.50;78.78;101853.25;2219362;80;32417;-61
2022/01/25 01:11:57;;;;;;;39.83;22.73;;;;;;;3.51;78.82;101852.83;2226065;79;33767;-60
2022/01/25 01:31:26;;;;;;;39.00;21.40;;;;;;;3.54;79.01;101842.67;2205617;80;29793;-60
2022/01/25 01:44:10;;;;;;;40.95;22.98;;;;;;;3.58;79.18;101817.97;2189026;81;34175;-60
2022/01/25 01:47:20;;;;;;;41.42;22.90;;;;;;;3.60;79.21;101817.08;2222312;80;29368;-60
2022/01/25 01:50:25;;;;;;;38.65;22.75;;;;;;;3.61;79.21;101817.53;2225606;77;27670;-60
2022/01/25 01:53:17;;;;;;;40.60;21.97;;;;;;;3.63;79.21;101818.42;2260826;78;29554;-59
2022/01/25 01:56:19;;;;;;;41.48;23.30;;;;;;;3.65;79.26;101819.75;2262751;78;32324;-60
2022/01/25 01:59:21;;;;;;;39.85;23.22;;;;;;;3.66;79.25;101817.54;2262535;78;34035;-60
2022/01/25 02:02:23;;;;;;;39.00;22.77;;;;;;;3.68;79.23;101813.13;2289028;77;30592;-63
2022/01/25 02:05:25;;;;;;;42.23;22.60;;;;;;;3.67;79.17;101803.41;2294611;77;27595;-60
2022/01/25 02:08:27;;;;;;;39.63;22.60;;;;;;;3.65;79.19;101807.39;2294533;77;29915;-59
2022/01/25 02:11:29;;;;;;;44.13;22.62;;;;;;;3.66;79.18;101796.34;2277820;77;32246;-59
2022/01/25 02:14:35;;;;;;;42.03;22.00;;;;;;;3.66;79.17;101792.36;2262639;78;33042;-59
2022/01/25 02:17:56;;;;;;;37.88;21.70;;;;;;;3.64;79.13;101783.09;2204138;77;30403;-61
2022/01/25 02:24:04;;;;;;;38.67;22.00;;;;;;;3.63;79.20;101781.78;2070493;85;29824;-61
2022/01/25 02:27:06;;;;;;;39.38;20.10;;;;;;;3.61;79.22;101780.89;2070896;86;31872;-61
2022/01/25 02:30:10;;;;;;;33.15;20.25;;;;;;;3.62;79.30;101773.38;2070187;85;33506;-61
2022/01/25 02:33:11;;;;;;;35.90;20.95;;;;;;;3.61;79.34;101773.80;2083267;85;30157;-62
2022/01/25 02:36:27;;;;;;;39.38;20.52;;;;;;;3.61;79.36;101767.64;2069779;85;27664;-62
2022/01/25 02:39:30;;;;;;;33.28;18.67;;;;;;;3.61;79.35;101761.88;2107956;84;28657;-62
2022/01/25 02:42:32;;;;;;;34.83;20.35;;;;;;;3.60;79.37;101762.76;2107019;84;31074;-62
2022/01/25 02:45:36;;;;;;;36.73;18.67;;;;;;;3.60;79.32;101764.09;2106269;84;33114;-62
2022/01/25 02:49:00;;;;;;;30.95;17.37;;;;;;;3.60;79.23;101761.89;2106429;84;29910;-61
2022/01/25 02:52:05;;;;;;;27.30;17.20;;;;;;;3.57;79.22;101758.77;2106655;84;27578;-62
2022/01/25 02:55:08;;;;;;;31.25;17.70;;;;;;;3.53;79.21;101749.06;2103023;84;32343;-62
2022/01/25 02:58:09;;;;;;;28.60;17.23;;;;;;;3.51;79.26;101752.15;2146241;82;31839;-61
2022/01/25 03:01:11;;;;;;;30.45;17.32;;;;;;;3.51;79.25;101758.77;2146059;82;34447;-62
2022/01/25 03:04:15;;;;;;;32.80;17.85;;;;;;;3.49;79.25;101756.55;2105934;84;29144;-61
2022/01/25 03:07:16;;;;;;;32.03;17.95;;;;;;;3.48;79.33;101747.70;2108550;83;27597;-61
2022/01/25 03:10:19;;;;;;;31.60;17.55;;;;;;;3.48;79.44;101750.35;2108148;84;29542;-61
2022/01/25 03:13:26;;;;;;;30.97;17.23;;;;;;;3.50;79.48;101747.73;2107510;84;32259;-61
2022/01/25 03:19:50;;;;;;;34.23;18.65;;;;;;;3.53;79.60;101748.16;2099549;84;30493;-61
2022/01/25 03:25:55;;;;;;;38.28;21.68;;;;;;;3.56;79.71;101749.05;2143361;83;28433;-62
2022/01/25 03:28:57;;;;;;;34.00;20.85;;;;;;;3.56;79.67;101738.45;2144468;82;31893;-63
2022/01/25 03:31:59;;;;;;;35.50;21.17;;;;;;;3.58;79.77;101734.05;2144405;83;34012;-61
2022/01/25 03:35:01;;;;;;;39.00;22.10;;;;;;;3.61;79.80;101737.16;2099105;84;30272;-61
2022/01/25 03:38:03;;;;;;;36.50;21.82;;;;;;;3.64;79.81;101734.53;2145436;82;27566;-61
2022/01/25 03:41:09;;;;;;;36.40;21.25;;;;;;;3.68;79.80;101736.73;2144368;82;29488;-62
2022/01/25 03:44:12;;;;;;;32.90;20.97;;;;;;;3.69;79.76;101735.40;2144420;82;31023;-61
2022/01/25 03:47:18;;;;;;;38.98;22.00;;;;;;;3.71;79.80;101737.61;2144958;82;32550;-61
2022/01/25 03:50:18;;;;;;;37.23;22.20;;;;;;;3.73;79.78;101740.25;2144902;82;30644;-61
2022/01/25 03:53:20;;;;;;;35.20;21.25;;;;;;;3.73;79.77;101731.88;2099297;84;27693;-61
2022/01/25 03:56:23;;;;;;;37.17;22.02;;;;;;;3.73;79.74;101725.25;2143485;83;28464;-61
2022/01/25 03:59:25;;;;;;;37.13;20.82;;;;;;;3.73;79.79;101730.98;2143312;82;31375;-62
2022/01/25 04:02:30;;;;;;;38.78;22.05;;;;;;;3.73;79.79;101729.23;2143206;83;34091;-62
2022/01/25 04:05:49;;;;;;;35.80;22.50;;;;;;;3.75;79.82;101727.89;2143275;82;30607;-62
2022/01/25 04:08:41;;;;;;;36.60;21.05;;;;;;;3.75;79.88;101739.40;2144467;82;27779;-62
2022/01/25 04:11:43;;;;;;;38.30;23.07;;;;;;;3.76;79.86;101735.87;2143493;83;29393;-61
2022/01/25 04:14:45;;;;;;;39.50;22.48;;;;;;;3.78;79.91;101734.11;2142715;83;32412;-62
2022/01/25 04:17:52;;;;;;;40.60;23.02;;;;;;;3.81;79.88;101731.89;2147390;82;34318;-62
2022/01/25 04:21:04;;;;;;;41.13;22.82;;;;;;;3.80;79.88;101727.05;2170547;81;29360;-62
2022/01/25 04:27:26;;;;;;;42.10;24.50;;;;;;;3.83;79.92;101725.25;2139399;82;29118;-62
2022/01/25 04:30:29;;;;;;;37.98;24.02;;;;;;;3.84;79.90;101725.70;2095450;85;31393;-62
2022/01/25 04:33:41;;;;;;;31.85;17.45;;;;;;;3.84;79.92;101727.92;2172137;81;33097;-61
2022/01/25 04:49:53;;;;;;;31.50;20.55;;;;;;;3.86;79.95;101709.36;2139489;83;34418;-62
2022/01/25 04:53:03;;;;;;;32.65;20.40;;;;;;;3.87;80.01;101709.80;2152908;82;29267;-62
2022/01/25 04:56:04;;;;;;;35.68;21.57;;;;;;;3.87;80.00;101718.66;2171004;81;27664;-62
2022/01/25 04:59:11;;;;;;;39.95;22.75;;;;;;;3.88;80.06;101712.91;2169209;81;29654;-62
2022/01/25 05:02:16;;;;;;;33.28;21.25;;;;;;;3.88;80.00;101714.23;2165895;81;32269;-61
2022/01/25 05:08:37;;;;;;;35.43;20.77;;;;;;;3.84;80.04;101709.38;2038558;86;30544;-62
2022/01/25 05:11:39;;;;;;;35.00;19.70;;;;;;;3.85;80.06;101710.24;2041062;87;27634;-63
2022/01/25 05:15:21;;;;;;;33.38;20.32;;;;;;;3.83;80.03;101707.60;2041347;87;28688;-62
2022/01/25 05:17:46;;;;;;;31.52;18.32;;;;;;;3.83;80.05;101712.00;2056075;86;32335;-63
2022/01/25 05:24:08;;;;;;;34.55;18.80;;;;;;;3.83;80.10;101721.28;1999340;88;29141;-61
2022/01/25 05:27:15;;;;;;;38.13;20.95;;;;;;;3.84;80.16;101714.67;2025655;87;27949;-61
2022/01/25 05:30:17;;;;;;;34.83;20.45;;;;;;;3.84;80.16;101713.77;2028077;87;28658;-62
2022/01/25 05:33:19;;;;;;;29.48;19.52;;;;;;;3.85;80.16;101711.56;2025693;87;31739;-62
2022/01/25 05:36:21;;;;;;;31.35;19.02;;;;;;;3.85;80.13;101707.59;2025525;87;33339;-62
2022/01/25 05:39:28;;;;;;;29.23;18.15;;;;;;;3.84;80.10;101708.47;2026855;87;30448;-62
2022/01/25 05:46:00;;;;;;;31.05;17.15;;;;;;;3.80;80.10;101702.29;2079926;84;29737;-62
2022/01/25 05:48:59;;;;;;;31.10;18.90;;;;;;;3.80;80.13;101705.84;2135447;83;31185;-62
2022/01/25 05:52:02;;;;;;;35.83;21.48;;;;;;;3.80;80.16;101704.94;2127818;83;32802;-62
2022/01/25 05:55:06;;;;;;;47.20;28.70;;;;;;;3.80;80.24;101689.03;2127781;83;30094;-61
2022/01/25 05:58:08;;;;;;;45.33;27.45;;;;;;;3.81;80.23;101690.80;2127809;83;27688;-62
2022/01/25 06:01:10;;;;;;;39.38;23.92;;;;;;;3.80;80.20;101695.23;2073428;85;29833;-61
2022/01/25 06:04:12;;;;;;;36.58;19.23;;;;;;;3.78;80.20;101700.98;2073327;85;31031;-62
2022/01/25 06:07:14;;;;;;;33.83;18.60;;;;;;;3.78;80.24;101689.47;2069395;85;34130;-61
2022/01/25 06:10:17;;;;;;;30.08;17.73;;;;;;;3.79;80.23;101695.22;2079118;85;30645;-61
2022/01/25 06:13:19;;;;;;;34.18;18.15;;;;;;;3.79;80.21;101687.27;2080284;85;27765;-61
2022/01/25 06:16:21;;;;;;;29.52;17.27;;;;;;;3.78;80.20;101689.05;2080100;85;29604;-61
2022/01/25 06:19:23;;;;;;;32.20;18.50;;;;;;;3.79;80.21;101683.29;2090096;84;32237;-61
2022/01/25 06:22:25;;;;;;;27.58;15.90;;;;;;;3.80;80.26;101679.76;2104036;84;33563;-61
2022/01/25 06:25:27;;;;;;;28.47;15.08;;;;;;;3.79;80.21;101672.27;2102754;84;30154;-62
2022/01/25 06:28:29;;;;;;;27.22;14.13;;;;;;;3.79;80.15;101675.34;2104058;84;27735;-62
2022/01/25 06:31:31;;;;;;;24.50;14.33;;;;;;;3.78;80.14;101672.24;2103365;84;29892;-61
2022/01/25 06:34:34;;;;;;;24.07;14.05;;;;;;;3.71;80.19;101663.86;2104120;84;31966;-62
2022/01/25 06:37:36;;;;;;;41.40;22.37;;;;;;;3.78;80.21;101681.09;2104109;84;34193;-62
2022/01/25 06:40:38;;;;;;;184.95;98.20;;;;;;;3.77;80.22;101678.00;2103032;84;30146;-61
2022/01/25 06:43:40;;;;;;;226.10;110.90;;;;;;;3.77;80.25;101674.03;2147168;82;27641;-62
2022/01/25 06:46:42;;;;;;;222.33;119.47;;;;;;;3.76;80.21;101670.93;2151192;82;29235;-62
2022/01/25 06:49:44;;;;;;;67.40;38.53;;;;;;;3.76;80.22;101666.95;2164257;82;31570;-62
2022/01/25 06:52:47;;;;;;;44.18;27.13;;;;;;;3.77;80.25;101667.82;2164346;82;34181;-62
2022/01/25 06:55:49;;;;;;;46.30;27.20;;;;;;;3.78;80.27;101670.92;2164242;82;30508;-62
2022/01/25 06:58:51;;;;;;;74.10;49.48;;;;;;;3.79;80.33;101670.94;2149496;82;27768;-62
2022/01/25 07:01:53;;;;;;;46.98;29.75;;;;;;;3.81;80.25;101668.28;2165930;82;29916;-62
2022/01/25 07:04:54;;;;;;;35.45;22.80;;;;;;;3.83;80.30;101666.94;2166560;82;31405;-62
2022/01/25 07:07:57;;;;;;;34.33;20.97;;;;;;;3.84;80.25;101671.36;2150885;82;34271;-62
2022/01/25 07:10:59;;;;;;;33.95;18.37;;;;;;;3.83;80.22;101674.89;2142742;82;30467;-62
2022/01/25 07:14:00;;;;;;;32.95;20.17;;;;;;;3.83;80.28;101674.89;2142974;82;27728;-62
2022/01/25 07:17:03;;;;;;;34.10;19.75;;;;;;;3.84;80.27;101684.19;2161838;82;29515;-62
2022/01/25 07:20:07;;;;;;;20.85;13.38;;;;;;;3.81;80.26;101681.53;2163955;82;31983;-62
2022/01/25 07:23:08;;;;;;;24.43;14.33;;;;;;;3.68;79.70;101666.05;2164299;82;34148;-62
2022/01/25 07:26:10;;;;;;;21.05;12.47;;;;;;;3.61;79.80;101666.94;2154209;82;29709;-61
2022/01/25 07:29:12;;;;;;;20.00;12.75;;;;;;;3.58;79.85;101662.50;2147351;82;27695;-61
2022/01/25 07:32:14;;;;;;;21.77;13.75;;;;;;;3.53;79.81;101659.41;2146881;82;29146;-63
2022/01/25 07:35:16;;;;;;;20.40;12.63;;;;;;;3.49;79.77;101659.39;2150949;82;32265;-62
2022/01/25 07:38:18;;;;;;;21.68;13.10;;;;;;;3.47;79.73;101669.55;2164466;82;34282;-61
2022/01/25 07:41:21;;;;;;;24.75;13.13;;;;;;;3.42;79.69;101673.53;2164737;82;29112;-61
2022/01/25 07:44:27;;;;;;;27.65;13.65;;;;;;;3.38;79.74;101665.58;2164702;82;27725;-61
2022/01/25 07:47:27;;;;;;;17.25;12.23;;;;;;;3.38;79.82;101673.52;2143656;82;29830;-62
2022/01/25 07:50:29;;;;;;;21.15;13.08;;;;;;;3.36;79.70;101676.61;2142877;83;31406;-62
2022/01/25 07:53:31;;;;;;;18.30;12.28;;;;;;;3.32;79.73;101667.32;2142722;82;34180;-65
2022/01/25 07:56:33;;;;;;;17.45;11.75;;;;;;;3.29;79.77;101663.79;2157123;82;30621;-62
2022/01/25 07:59:35;;;;;;;19.00;12.78;;;;;;;3.29;79.84;101663.33;2164487;82;27761;-62
2022/01/25 08:02:37;;;;;;;19.10;12.68;;;;;;;3.30;79.82;101666.88;2164298;82;30037;-62
2022/01/25 08:05:39;;;;;;;19.00;11.90;;;;;;;3.29;79.74;101667.77;2156806;82;31891;-62
2022/01/25 08:08:41;;;;;;;18.35;11.80;;;;;;;3.25;79.64;101671.27;2143239;82;34246;-63
2022/01/25 08:11:43;;;;;;;25.35;13.60;;;;;;;3.24;79.84;101669.05;2143014;82;30507;-63
2022/01/25 08:14:45;;;;;;;26.33;14.47;;;;;;;3.23;79.81;101679.20;2144226;82;27703;-61
2022/01/25 08:17:47;;;;;;;21.15;12.73;;;;;;;3.24;79.84;101681.42;2164855;82;28560;-61
2022/01/25 08:20:50;;;;;;;19.48;11.83;;;;;;;3.24;79.75;101684.94;2168626;82;32230;-61
2022/01/25 08:23:52;;;;;;;24.50;13.20;;;;;;;3.24;79.69;101684.94;2171484;81;33463;-61
2022/01/25 08:26:54;;;;;;;43.00;27.85;;;;;;;3.23;79.74;101688.46;2169023;82;29786;-60
2022/01/25 08:29:56;;;;;;;36.45;25.48;;;;;;;3.26;79.70;101692.91;2170465;82;27660;-62
2022/01/25 08:32:59;;;;;;;25.88;17.80;;;;;;;3.28;79.85;101689.83;2170320;82;29908;-62
2022/01/25 08:36:01;;;;;;;25.02;16.15;;;;;;;3.33;79.89;101688.95;2160034;82;32263;-61
2022/01/25 08:39:05;;;;;;;22.90;13.65;;;;;;;3.40;80.06;101687.63;2139322;82;33940;-61
2022/01/25 08:42:08;;;;;;;20.10;11.83;;;;;;;3.48;79.93;101694.71;2139433;82;30558;-61
2022/01/25 08:45:11;;;;;;;16.48;10.32;;;;;;;3.55;79.95;101698.30;2141134;82;27846;-63
2022/01/25 08:48:13;;;;;;;14.78;9.83;;;;;;;3.61;79.83;101701.39;2170418;82;29134;-62
2022/01/25 08:51:15;;;;;;;14.03;10.23;;;;;;;3.68;79.93;101696.98;2170348;82;31543;-61
2022/01/25 08:54:17;;;;;;;16.37;10.08;;;;;;;3.77;80.10;101695.66;2170709;82;32985;-64
2022/01/25 08:57:19;;;;;;;14.45;10.38;;;;;;;3.85;79.83;101697.89;2168980;82;29954;-61
2022/01/25 09:00:22;;;;;;;15.83;11.28;;;;;;;3.89;79.90;101694.33;2170711;82;27648;-61
2022/01/25 09:03:24;;;;;;;19.52;11.28;;;;;;;3.95;79.76;101701.44;2157037;82;30048;-61
2022/01/25 09:06:26;;;;;;;16.12;10.28;;;;;;;3.93;79.46;101706.72;2095297;85;31599;-61
2022/01/25 09:09:28;;;;;;;19.77;13.98;;;;;;;3.90;79.33;101706.70;2139780;83;33495;-61
2022/01/25 09:12:30;;;;;;;24.65;18.05;;;;;;;3.88;79.29;101710.25;2143350;82;29470;-62
2022/01/25 09:15:32;;;;;;;26.95;19.15;;;;;;;3.87;79.38;101712.45;2170529;82;27589;-66
2022/01/25 09:18:36;;;;;;;22.60;14.87;;;;;;;3.87;79.45;101712.03;2167796;82;29912;-63
2022/01/25 09:21:39;;;;;;;15.38;10.63;;;;;;;3.90;79.46;101708.48;2137795;82;31167;-61
2022/01/25 09:24:41;;;;;;;18.30;12.98;;;;;;;3.92;79.35;101712.03;2165769;82;34192;-64
2022/01/25 09:27:43;;;;;;;15.18;10.95;;;;;;;3.97;79.43;101710.28;2171248;82;30504;-61
2022/01/25 09:30:48;;;;;;;23.87;14.33;;;;;;;4.05;79.42;101699.22;2170306;81;28299;-61
2022/01/25 09:33:53;;;;;;;28.12;15.70;;;;;;;4.19;79.68;101701.88;2171572;82;28652;-62
2022/01/25 09:36:54;;;;;;;23.00;13.50;;;;;;;4.32;79.55;101702.73;2171936;81;31177;-61
2022/01/25 09:39:57;;;;;;;21.62;12.10;;;;;;;4.45;79.28;101698.75;2157861;82;34252;-67
2022/01/25 09:42:59;;;;;;;22.85;13.00;;;;;;;4.53;79.23;101697.86;2137741;83;28740;-69
2022/01/25 09:46:01;;;;;;;20.77;13.38;;;;;;;4.67;79.25;101700.92;2098762;84;27690;-62
2022/01/25 09:49:07;;;;;;;22.50;12.55;;;;;;;4.80;79.11;101686.72;2140077;82;29500;-61
2022/01/25 09:52:09;;;;;;;21.63;13.93;;;;;;;4.89;78.87;101675.61;2171586;82;31045;-63
2022/01/25 09:55:18;;;;;;;23.52;14.03;;;;;;;4.98;78.68;101680.90;2171674;81;33758;-64
2022/01/25 09:58:20;;;;;;;23.20;11.65;;;;;;;5.08;78.62;101670.66;2173114;81;29378;-64
2022/01/25 10:01:27;;;;;;;19.82;12.75;;;;;;;5.16;78.42;101662.23;2170609;81;27790;-62
2022/01/25 10:04:38;;;;;;;27.45;15.18;;;;;;;5.28;78.50;101655.97;2170194;81;28683;-67
2022/01/25 10:07:39;;;;;;;22.90;14.38;;;;;;;5.44;78.37;101655.88;2171530;82;31615;-63
2022/01/25 10:10:54;;;;;;;19.50;12.15;;;;;;;5.54;78.22;101658.90;2161172;82;33320;-63
2022/01/25 10:13:57;;;;;;;20.92;11.65;;;;;;;5.65;77.85;101663.25;2154371;81;29384;-62
2022/01/25 10:17:00;;;;;;;18.45;12.05;;;;;;;5.72;77.76;101658.34;2159852;81;27677;-61
2022/01/25 10:20:04;;;;;;;18.32;12.68;;;;;;;5.80;77.71;101649.83;2166107;81;28732;-65
2022/01/25 10:23:22;;;;;;;20.85;13.35;;;;;;;5.87;77.34;101644.05;2139232;81;32362;-63
2022/01/25 10:26:24;;;;;;;19.98;12.23;;;;;;;5.96;77.50;101639.09;2061871;85;34437;-62
2022/01/25 10:29:31;;;;;;;21.55;13.22;;;;;;;6.11;77.49;101638.09;2091301;85;30396;-61
2022/01/25 10:32:33;;;;;;;18.57;11.40;;;;;;;6.18;77.24;101634.02;2091802;85;27666;-61
2022/01/25 10:35:37;;;;;;;17.02;11.63;;;;;;;6.25;76.89;101634.84;2092127;85;28651;-62
2022/01/25 10:38:43;;;;;;;19.57;12.47;;;;;;;6.31;76.87;101626.81;2073408;85;31131;-62
2022/01/25 10:41:46;;;;;;;21.50;11.78;;;;;;;6.41;76.73;101621.38;2070192;86;33177;-65
2022/01/25 10:45:03;;;;;;;16.82;11.48;;;;;;;6.47;76.50;101611.53;2028488;87;29487;-66
2022/01/25 10:48:05;;;;;;;20.65;13.38;;;;;;;6.50;76.42;101606.18;2084260;85;27803;-61
2022/01/25 10:51:13;;;;;;;15.15;10.60;;;;;;;6.60;76.51;101606.95;2091968;85;29897;-63
2022/01/25 10:54:22;;;;;;;17.82;10.35;;;;;;;6.63;75.71;101606.03;2092331;85;31197;-62
2022/01/25 10:57:24;;;;;;;25.12;12.58;;;;;;;6.61;76.01;101604.73;2083023;85;32970;-61
2022/01/25 11:00:33;;;;;;;18.75;11.43;;;;;;;6.69;76.00;101608.62;2070376;86;30303;-62
2022/01/25 11:03:41;;;;;;;16.50;11.18;;;;;;;6.69;75.62;101604.20;2036998;86;27759;-61
2022/01/25 11:06:44;;;;;;;19.37;11.70;;;;;;;6.68;75.40;101593.11;2064898;86;28444;-62
2022/01/25 11:09:47;;;;;;;17.30;10.38;;;;;;;6.71;75.39;101598.84;2107302;84;31404;-62
2022/01/25 11:13:04;;;;;;;24.15;14.45;;;;;;;6.69;75.04;101592.65;2108355;84;34070;-61
2022/01/25 11:16:11;;;;;;;18.98;11.75;;;;;;;6.66;75.00;101598.01;2107995;84;30176;-62
2022/01/25 11:19:13;;;;;;;18.98;11.80;;;;;;;6.73;75.34;101591.72;2107923;84;27665;-62
2022/01/25 11:22:19;;;;;;;24.30;12.35;;;;;;;6.80;75.19;101592.52;2124446;83;29920;-61
2022/01/25 11:25:23;;;;;;;22.25;13.85;;;;;;;6.82;74.83;101584.06;2087224;83;31274;-65
2022/01/25 11:28:26;;;;;;;24.52;15.50;;;;;;;6.84;74.99;101586.26;2087007;85;33391;-64
2022/01/25 11:31:29;;;;;;;18.05;11.83;;;;;;;6.88;74.66;101588.42;2086662;83;29740;-63
2022/01/25 11:34:34;;;;;;;16.00;9.95;;;;;;;6.90;74.62;101590.16;2089327;84;27729;-63
2022/01/25 11:37:40;;;;;;;12.88;8.95;;;;;;;6.93;74.45;101583.92;2115540;83;29935;-64
2022/01/25 11:40:48;;;;;;;18.02;10.28;;;;;;;6.93;74.28;101578.59;2107663;84;31112;-62
2022/01/25 11:44:11;;;;;;;28.95;21.07;;;;;;;6.98;74.27;101575.39;2118469;83;33435;-63
2022/01/25 11:47:16;;;;;;;18.87;12.53;;;;;;;7.04;74.37;101575.75;2176315;81;30114;-63
2022/01/25 11:50:19;;;;;;;17.53;10.10;;;;;;;7.13;74.38;101576.97;2172949;81;28153;-62
2022/01/25 11:53:24;;;;;;;15.90;9.00;;;;;;;7.16;73.81;101571.59;2123892;82;30797;-64
2022/01/25 11:56:26;;;;;;;20.48;11.57;;;;;;;7.21;74.16;101570.19;2150171;81;31016;-62
2022/01/25 11:59:37;;;;;;;31.82;18.32;;;;;;;7.28;74.06;101561.21;2149788;81;33836;-62
2022/01/25 12:02:51;;;;;;;15.80;8.78;;;;;;;7.35;74.04;101568.19;2171577;82;30201;-63
2022/01/25 12:06:08;;;;;;;13.58;8.95;;;;;;;7.30;73.23;101566.03;2165711;81;27680;-62
2022/01/25 12:09:31;;;;;;;22.00;10.32;;;;;;;7.30;73.16;101562.04;2139192;82;29964;-62
2022/01/25 12:12:22;;;;;;;21.02;10.15;;;;;;;7.33;73.20;101565.99;2138734;82;31034;-63
2022/01/25 12:15:24;;;;;;;15.72;9.28;;;;;;;7.33;72.76;101567.33;2140656;82;33006;-61
2022/01/25 12:18:59;;;;;;;14.98;8.08;;;;;;;7.28;72.82;101574.07;2170758;82;29550;-62
2022/01/25 12:22:42;;;;;;;12.70;9.15;;;;;;;7.22;72.61;101566.16;2149308;82;27741;-62
2022/01/25 12:25:52;;;;;;;16.10;9.85;;;;;;;7.11;72.34;101556.13;2141375;82;29579;-62
2022/01/25 12:28:51;;;;;;;13.30;9.38;;;;;;;6.94;72.31;101561.24;2170708;81;31788;-62
2022/01/25 12:31:54;;;;;;;14.75;9.65;;;;;;;6.88;72.41;101557.78;2151421;82;34180;-63
2022/01/25 12:35:09;;;;;;;14.28;8.58;;;;;;;6.80;72.41;101554.77;2136878;83;30175;-62
2022/01/25 12:38:15;;;;;;;18.87;14.87;;;;;;;6.73;72.19;101556.20;2168795;82;27736;-62
2022/01/25 12:41:27;;;;;;;15.75;9.55;;;;;;;6.61;72.18;101554.61;2164891;82;28648;-63
2022/01/25 12:44:30;;;;;;;17.50;11.48;;;;;;;6.53;72.28;101546.72;2170836;82;31158;-62
2022/01/25 12:47:33;;;;;;;17.77;10.55;;;;;;;6.46;72.33;101539.22;2170963;82;32962;-60
2022/01/25 12:50:38;;;;;;;14.33;9.30;;;;;;;6.40;72.29;101541.98;2168916;82;28979;-62
2022/01/25 12:53:44;;;;;;;13.88;7.87;;;;;;;6.39;72.46;101540.22;2170658;81;27751;-61
2022/01/25 12:56:49;;;;;;;14.95;9.85;;;;;;;6.38;72.61;101543.31;2172250;81;29626;-63
2022/01/25 12:59:51;;;;;;;12.95;8.40;;;;;;;6.32;72.42;101536.75;2158358;81;31710;-61
2022/01/25 13:02:55;;;;;;;16.02;9.98;;;;;;;6.33;72.79;101536.29;2137048;82;32971;-62
2022/01/25 13:06:08;;;;;;;15.17;7.87;;;;;;;6.32;72.65;101537.19;2070343;85;29423;-62
2022/01/25 13:09:19;;;;;;;11.38;6.97;;;;;;;6.29;72.40;101542.11;2085762;84;27698;-61
2022/01/25 13:12:33;;;;;;;13.98;9.28;;;;;;;6.21;72.39;101546.19;2096966;84;28673;-63
2022/01/25 13:18:41;;;;;;;12.15;7.67;;;;;;;6.21;72.75;101533.31;2076978;85;33684;-61
2022/01/25 13:22:02;;;;;;;10.72;7.00;;;;;;;6.22;72.58;101530.66;2037518;85;30360;-62
2022/01/25 13:25:31;;;;;;;13.58;7.62;;;;;;;6.25;72.64;101529.73;2031966;87;27785;-63
2022/01/25 13:28:37;;;;;;;11.18;7.42;;;;;;;6.27;72.57;101535.92;2012070;87;28687;-63
2022/01/25 13:31:36;;;;;;;12.73;8.73;;;;;;;6.23;72.35;101536.41;2017503;87;31104;-63
2022/01/25 13:34:38;;;;;;;15.93;8.48;;;;;;;6.16;72.45;101541.36;1996121;89;33117;-65
2022/01/25 13:37:41;;;;;;;13.22;7.90;;;;;;;6.07;72.37;101534.82;1996169;89;29484;-62
2022/01/25 13:46:59;;;;;;;18.32;10.55;;;;;;;5.91;72.62;101535.39;2104574;84;31112;-62
2022/01/25 13:50:01;;;;;;;14.15;8.98;;;;;;;5.87;72.60;101530.55;2095679;84;32986;-63
2022/01/25 13:53:06;;;;;;;17.15;8.95;;;;;;;5.81;72.55;101534.59;2096890;84;30200;-64
2022/01/25 13:56:11;;;;;;;;;;;;;;;5.75;72.42;101540.86;2107199;84;28173;-63
2022/01/25 13:59:15;;;;;;;15.43;9.75;;;;;;;5.67;72.59;101532.52;2098135;84;28648;-63
2022/01/25 14:02:18;;;;;;;20.52;11.33;;;;;;;5.61;72.71;101538.78;2079497;85;31495;-63
2022/01/25 14:05:20;;;;;;;18.23;10.58;;;;;;;5.56;72.81;101535.27;2079912;84;33799;-63
2022/01/25 14:08:36;;;;;;;19.77;11.22;;;;;;;5.53;72.94;101534.00;2089850;83;29333;-63
2022/01/25 14:22:10;;;;;;;18.05;11.35;;;;;;;5.35;73.14;101533.68;2084460;84;34401;-63
2022/01/25 14:24:59;;;;;;;20.37;11.63;;;;;;;5.26;73.15;101533.30;2097328;84;29659;-62
2022/01/25 14:28:06;;;;;;;15.80;10.40;;;;;;;5.17;73.24;101540.47;2102349;84;27672;-63
2022/01/25 14:31:22;;;;;;;20.10;12.10;;;;;;;5.13;73.41;101545.36;2114018;84;28106;-63
2022/01/25 14:34:27;;;;;;;63.13;25.75;;;;;;;5.10;73.53;101543.17;2080490;85;31044;-64
2022/01/25 14:37:29;;;;;;;46.55;23.32;;;;;;;5.09;73.65;101548.05;2055250;84;33768;-62
2022/01/25 14:40:31;;;;;;;39.85;20.25;;;;;;;5.06;73.72;101547.60;2168999;82;32408;-63
2022/01/25 14:43:44;;;;;;;47.48;24.50;;;;;;;5.03;73.65;101543.67;2170753;82;27684;-62
2022/01/25 14:46:50;;;;;;;36.15;17.48;;;;;;;5.01;73.67;101542.79;2170868;81;29044;-62
2022/01/25 14:49:58;;;;;;;28.50;15.85;;;;;;;4.97;73.70;101544.56;2145754;80;31162;-62
2022/01/25 14:53:08;;;;;;;19.55;12.47;;;;;;;4.90;73.66;101545.94;2165590;81;34320;-62
2022/01/25 14:56:13;;;;;;;19.07;11.83;;;;;;;4.84;73.71;101545.10;2166858;81;29735;-62
2022/01/25 14:59:27;;;;;;;18.32;10.58;;;;;;;4.80;73.80;101543.81;2151282;82;27756;-62
2022/01/25 15:02:29;;;;;;;21.12;10.78;;;;;;;4.77;73.83;101546.02;2137643;82;29564;-63
2022/01/25 15:05:32;;;;;;;17.75;10.55;;;;;;;4.70;73.98;101549.14;2134606;82;32265;-62
2022/01/25 15:08:35;;;;;;;16.93;10.35;;;;;;;4.70;74.02;101556.25;2171210;81;33147;-62
2022/01/25 15:11:37;;;;;;;22.55;13.62;;;;;;;4.66;74.06;101552.70;2170604;82;30527;-62
2022/01/25 15:14:50;;;;;;;22.60;13.60;;;;;;;4.61;74.02;101553.61;2171034;82;28203;-62
2022/01/25 15:17:43;;;;;;;17.67;10.93;;;;;;;4.53;74.04;101557.20;2170703;81;30015;-62
2022/01/25 15:20:45;;;;;;;17.55;9.95;;;;;;;4.49;74.10;101563.41;2170740;82;32408;-62
2022/01/25 15:23:49;;;;;;;21.30;12.20;;;;;;;4.43;74.15;101570.51;2170528;82;34190;-62
2022/01/25 15:26:54;;;;;;;16.27;9.13;;;;;;;4.38;74.19;101571.86;2155662;81;30220;-63
2022/01/25 15:29:57;;;;;;;20.40;12.13;;;;;;;4.34;74.28;101574.08;2137113;83;27905;-62
2022/01/25 15:32:59;;;;;;;19.40;12.80;;;;;;;4.26;74.30;101575.42;2137249;82;29529;-63
2022/01/25 15:36:02;;;;;;;20.68;11.70;;;;;;;4.22;74.42;101581.16;2142738;82;31724;-62
2022/01/25 15:39:05;;;;;;;21.90;13.10;;;;;;;4.17;74.48;101578.98;2155065;82;33011;-63
2022/01/25 15:42:08;;;;;;;19.27;10.80;;;;;;;4.11;74.55;101580.31;2153628;82;30120;-62
2022/01/25 15:45:23;;;;;;;20.20;11.08;;;;;;;4.06;74.61;101583.41;2153708;82;27629;-62
2022/01/25 15:48:15;;;;;;;21.87;11.00;;;;;;;4.01;74.62;101588.72;2169970;82;29935;-62
2022/01/25 15:51:18;;;;;;;19.07;11.20;;;;;;;3.97;74.70;101588.73;2170931;82;31820;-62
2022/01/25 15:54:21;;;;;;;20.80;11.80;;;;;;;3.92;74.82;101591.40;2170636;82;34281;-62
2022/01/25 15:57:23;;;;;;;21.57;11.70;;;;;;;3.92;74.94;101594.05;2149909;82;30531;-63
2022/01/25 16:00:25;;;;;;;22.65;13.22;;;;;;;3.90;75.06;101591.84;2159039;81;28192;-63
2022/01/25 16:03:32;;;;;;;24.85;14.90;;;;;;;3.89;75.04;101592.72;2171830;81;29900;-62